Time;durP1;ratioP1;P1;durP2;ratioP2;P2;SDS_P1;SDS_P2;PMS_P1;PMS_P2;Temp;Humidity;BMP_temperature;BMP_pressure;BME280_temperature;BME280_humidity;BME280_pressure;Samples;Min_cycle;Max_cycle;Signal;HPM_P1;HPM_P2
2023/07/15 00:01:36;;;;;;;5.53;3.70;;;21.10;99.90;;;;;;5011631;28;20273;-84
2023/07/15 00:04:10;;;;;;;7.15;3.97;;;21.10;99.90;;;;;;5008586;28;20229;-85
2023/07/15 00:06:37;;;;;;;5.30;3.88;;;21.10;99.90;;;;;;5006728;28;20214;-82
2023/07/15 00:09:04;;;;;;;6.13;3.80;;;21.10;99.90;;;;;;5009443;28;20230;-82
2023/07/15 00:11:35;;;;;;;6.05;4.05;;;21.10;99.90;;;;;;5008423;28;20314;-82
2023/07/15 00:14:04;;;;;;;5.57;3.72;;;21.10;99.90;;;;;;5010449;28;20214;-83
2023/07/15 00:16:31;;;;;;;5.15;3.55;;;21.10;99.90;;;;;;5010131;28;20746;-83
2023/07/15 00:18:58;;;;;;;4.30;3.42;;;21.10;99.90;;;;;;5006260;28;20218;-81
2023/07/15 00:21:30;;;;;;;6.55;3.90;;;21.10;99.90;;;;;;5008585;28;20607;-82
2023/07/15 00:23:58;;;;;;;6.80;3.50;;;21.20;99.90;;;;;;5010593;28;20211;-84
2023/07/15 00:26:34;;;;;;;7.10;3.65;;;21.20;99.90;;;;;;5009202;28;20569;-83
2023/07/15 00:29:03;;;;;;;5.90;3.70;;;21.20;99.90;;;;;;5010019;28;20202;-84
2023/07/15 00:31:32;;;;;;;5.10;3.83;;;21.20;99.90;;;;;;5008028;28;20276;-82
2023/07/15 00:33:59;;;;;;;5.55;3.20;;;21.20;99.90;;;;;;5009726;28;20213;-83
2023/07/15 00:36:27;;;;;;;5.97;3.65;;;21.20;99.90;;;;;;5009552;28;20211;-84
2023/07/15 00:38:54;;;;;;;10.05;4.28;;;21.20;99.90;;;;;;5006162;28;20207;-83
2023/07/15 00:41:26;;;;;;;5.35;3.95;;;21.20;99.90;;;;;;5008597;28;20206;-84
2023/07/15 00:43:59;;;;;;;4.40;3.67;;;21.30;99.90;;;;;;5009181;28;20595;-83
2023/07/15 00:46:54;;;;;;;5.35;3.15;;;21.30;99.90;;;;;;5008662;28;20923;-82
2023/07/15 00:49:23;;;;;;;7.22;3.45;;;21.30;99.90;;;;;;5007991;28;20210;-83
2023/07/15 00:52:10;;;;;;;6.13;3.30;;;21.30;99.90;;;;;;5007845;28;20230;-82
2023/07/15 00:54:40;;;;;;;5.15;3.53;;;21.30;99.90;;;;;;5008952;28;20218;-83
2023/07/15 00:57:09;;;;;;;5.13;3.65;;;21.30;99.90;;;;;;5007350;28;20280;-83
2023/07/15 00:59:38;;;;;;;5.65;3.35;;;21.30;99.90;;;;;;5009117;28;20206;-82
2023/07/15 01:02:07;;;;;;;4.90;3.40;;;21.30;99.90;;;;;;5005400;28;20615;-84
2023/07/15 01:04:36;;;;;;;5.38;3.47;;;21.30;99.90;;;;;;5007577;28;20694;-85
2023/07/15 01:07:07;;;;;;;6.22;3.22;;;21.30;99.90;;;;;;5008537;28;20304;-83
2023/07/15 01:09:34;;;;;;;6.00;3.17;;;21.30;99.90;;;;;;5009402;28;20737;-83
2023/07/15 01:12:01;;;;;;;5.53;3.60;;;21.20;99.90;;;;;;5007336;28;20348;-85
2023/07/15 01:14:31;;;;;;;5.07;2.95;;;21.10;99.90;;;;;;5008514;28;20210;-83
2023/07/15 01:16:57;;;;;;;4.95;3.22;;;21.10;99.90;;;;;;5008252;28;20207;-83
2023/07/15 01:19:24;;;;;;;3.85;2.78;;;21.20;99.90;;;;;;5009487;28;20206;-84
2023/07/15 01:21:52;;;;;;;7.40;3.28;;;21.10;99.90;;;;;;5008787;28;20195;-84
2023/07/15 01:24:21;;;;;;;5.05;3.10;;;21.00;99.90;;;;;;5007193;28;20343;-82
2023/07/15 01:26:55;;;;;;;4.07;2.72;;;21.00;99.90;;;;;;5007721;28;20226;-82
2023/07/15 01:29:22;;;;;;;3.80;2.70;;;21.00;99.90;;;;;;5011372;28;20204;-83
2023/07/15 01:31:48;;;;;;;4.50;2.92;;;20.60;99.90;;;;;;5006132;28;20613;-82
2023/07/15 01:34:15;;;;;;;5.55;3.20;;;20.90;99.90;;;;;;5009048;28;20214;-83
2023/07/15 01:36:42;;;;;;;4.40;2.60;;;21.00;99.90;;;;;;5005646;28;20269;-82
2023/07/15 01:39:09;;;;;;;5.35;2.72;;;21.00;99.90;;;;;;5008876;28;20207;-85
2023/07/15 01:41:37;;;;;;;4.45;3.03;;;21.20;99.90;;;;;;5007513;28;21020;-83
2023/07/15 01:44:04;;;;;;;3.78;2.70;;;21.00;99.90;;;;;;5009233;28;20245;-83
2023/07/15 01:46:34;;;;;;;4.93;2.75;;;21.10;99.90;;;;;;5008218;28;20281;-83
2023/07/15 01:49:02;;;;;;;4.32;2.50;;;21.10;99.90;;;;;;5006808;28;20222;-83
2023/07/15 01:51:30;;;;;;;3.72;2.70;;;21.20;99.90;;;;;;5011152;28;20534;-82
2023/07/15 01:53:58;;;;;;;5.63;2.72;;;21.20;99.90;;;;;;5009999;28;20234;-84
2023/07/15 01:56:26;;;;;;;4.78;2.50;;;21.30;99.90;;;;;;5001637;28;20322;-83
2023/07/15 01:58:53;;;;;;;2.75;2.40;;;21.30;99.90;;;;;;5010361;28;20748;-84
2023/07/15 02:01:20;;;;;;;3.20;2.20;;;21.30;99.90;;;;;;5004592;28;20210;-84
2023/07/15 02:03:47;;;;;;;3.90;2.55;;;21.30;99.90;;;;;;5006284;28;20210;-82
2023/07/15 02:06:16;;;;;;;4.50;2.33;;;21.40;99.90;;;;;;5007631;28;20226;-84
2023/07/15 02:08:44;;;;;;;2.72;2.53;;;21.50;99.90;;;;;;5007714;28;20286;-82
2023/07/15 02:11:11;;;;;;;2.90;2.45;;;21.40;99.90;;;;;;5012417;28;20250;-83
2023/07/15 02:13:38;;;;;;;2.50;2.30;;;21.40;99.90;;;;;;5008000;28;20210;-82
2023/07/15 02:16:05;;;;;;;3.25;2.28;;;21.40;99.90;;;;;;5010924;28;20525;-83
2023/07/15 02:18:32;;;;;;;2.42;1.83;;;21.40;99.90;;;;;;5011974;28;20226;-82
2023/07/15 02:20:58;;;;;;;3.17;2.20;;;21.40;99.90;;;;;;5004407;28;20207;-83
2023/07/15 02:23:25;;;;;;;2.60;2.13;;;21.40;99.90;;;;;;5003885;28;20215;-82
2023/07/15 02:25:52;;;;;;;3.90;2.33;;;21.40;99.90;;;;;;5006766;28;20230;-82
2023/07/15 02:28:21;;;;;;;4.63;2.60;;;21.20;99.90;;;;;;5007920;28;20218;-85
2023/07/15 02:30:48;;;;;;;3.95;2.38;;;21.50;99.90;;;;;;5008337;28;20217;-83
2023/07/15 02:33:15;;;;;;;4.00;2.20;;;21.40;99.90;;;;;;5005968;28;20762;-83
2023/07/15 02:35:42;;;;;;;3.92;1.85;;;21.40;99.90;;;;;;4998422;28;20234;-83
2023/07/15 02:38:09;;;;;;;2.33;1.95;;;21.40;99.90;;;;;;5006903;28;20207;-83
2023/07/15 02:40:36;;;;;;;3.47;2.28;;;21.50;99.90;;;;;;5005420;28;20259;-83
2023/07/15 02:43:03;;;;;;;5.75;2.10;;;21.50;99.90;;;;;;5006756;28;20234;-84
2023/07/15 02:45:30;;;;;;;2.67;2.20;;;21.50;99.90;;;;;;5005693;28;20318;-83
2023/07/15 02:47:56;;;;;;;2.60;2.30;;;21.50;99.90;;;;;;5005517;28;20218;-84
2023/07/15 02:50:24;;;;;;;3.45;2.22;;;21.50;99.90;;;;;;5006249;28;20233;-83
2023/07/15 02:52:50;;;;;;;3.17;2.35;;;21.70;99.90;;;;;;5006617;28;20704;-83
2023/07/15 02:55:17;;;;;;;2.80;2.13;;;21.60;99.90;;;;;;5006492;28;20230;-84
2023/07/15 02:57:44;;;;;;;2.60;2.13;;;21.60;99.90;;;;;;5006494;28;20223;-82
2023/07/15 03:00:14;;;;;;;3.55;2.35;;;21.60;99.90;;;;;;5006462;28;20879;-83
2023/07/15 03:02:44;;;;;;;3.92;2.15;;;21.70;99.90;;;;;;5005930;28;20293;-83
2023/07/15 03:05:11;;;;;;;3.45;2.03;;;21.70;99.90;;;;;;5007998;28;20319;-84
2023/07/15 03:07:40;;;;;;;4.38;2.25;;;21.60;99.90;;;;;;5005222;28;20203;-82
2023/07/15 03:10:07;;;;;;;2.83;2.30;;;21.60;99.90;;;;;;5004948;28;20738;-84
2023/07/15 03:12:34;;;;;;;2.85;1.88;;;21.70;99.90;;;;;;5004161;28;20223;-84
2023/07/15 03:15:01;;;;;;;4.85;2.40;;;21.80;99.90;;;;;;5004717;28;20230;-84
2023/07/15 03:17:35;;;;;;;4.20;2.42;;;21.80;99.90;;;;;;5006517;28;20211;-84
2023/07/15 03:20:22;;;;;;;7.03;2.38;;;21.70;99.90;;;;;;5012566;28;20217;-83
2023/07/15 03:22:50;;;;;;;3.72;2.22;;;21.80;99.90;;;;;;5008295;28;20225;-85
2023/07/15 03:25:19;;;;;;;3.47;2.28;;;21.70;99.90;;;;;;5008438;28;20257;-83
2023/07/15 03:27:48;;;;;;;2.40;2.10;;;21.70;99.90;;;;;;5007816;28;20207;-84
2023/07/15 03:30:15;;;;;;;3.22;2.20;;;21.70;99.90;;;;;;5006738;28;20206;-85
2023/07/15 03:32:43;;;;;;;6.95;1.98;;;21.70;99.90;;;;;;4998825;28;20207;-86
2023/07/15 03:35:12;;;;;;;3.40;2.10;;;21.80;99.90;;;;;;5005441;28;20938;-84
2023/07/15 03:37:42;;;;;;;8.45;2.13;;;21.70;99.90;;;;;;5006246;28;20290;-81
2023/07/15 03:40:10;;;;;;;4.80;2.22;;;21.60;99.90;;;;;;5006505;28;20225;-83
2023/07/15 03:42:38;;;;;;;4.07;2.25;;;21.50;99.90;;;;;;5005297;28;20238;-83
2023/07/15 03:45:06;;;;;;;4.88;2.20;;;21.40;99.90;;;;;;5005768;28;20280;-83
2023/07/15 03:47:35;;;;;;;2.55;2.20;;;21.50;99.90;;;;;;5004715;28;20217;-84
2023/07/15 03:50:07;;;;;;;4.50;2.10;;;21.40;99.90;;;;;;5006404;28;20212;-83
2023/07/15 03:52:36;;;;;;;4.30;2.13;;;21.40;99.90;;;;;;5004455;28;20218;-83
2023/07/15 03:55:05;;;;;;;3.05;2.00;;;21.20;99.90;;;;;;5006015;28;20223;-82
2023/07/15 03:57:34;;;;;;;3.78;2.15;;;21.40;99.90;;;;;;5005005;28;20249;-81
2023/07/15 04:00:06;;;;;;;5.40;2.25;;;21.40;99.90;;;;;;4998329;28;20213;-82
2023/07/15 04:02:33;;;;;;;3.78;2.20;;;21.30;99.90;;;;;;5004549;28;20986;-83
2023/07/15 04:05:02;;;;;;;3.53;2.15;;;21.50;99.90;;;;;;5004508;28;20230;-82
2023/07/15 04:07:29;;;;;;;4.45;2.30;;;21.30;99.90;;;;;;5005202;28;20353;-82
2023/07/15 04:09:56;;;;;;;2.72;2.33;;;21.30;99.90;;;;;;5005310;28;20214;-84
2023/07/15 04:12:23;;;;;;;2.65;2.25;;;21.30;99.90;;;;;;5004300;28;20304;-82
2023/07/15 04:14:50;;;;;;;7.72;2.30;;;21.30;99.90;;;;;;5004599;28;20215;-85
2023/07/15 04:17:17;;;;;;;4.30;2.20;;;21.30;99.90;;;;;;5006907;28;20218;-85
2023/07/15 04:19:44;;;;;;;4.97;1.92;;;21.30;99.90;;;;;;5005181;28;20305;-83
2023/07/15 04:22:12;;;;;;;2.05;1.83;;;21.20;99.90;;;;;;5005838;28;20213;-83
2023/07/15 04:24:39;;;;;;;5.68;2.50;;;21.30;99.90;;;;;;5004971;28;20297;-83
2023/07/15 04:27:06;;;;;;;2.45;2.00;;;21.30;99.90;;;;;;5009564;28;20833;-83
2023/07/15 04:29:35;;;;;;;3.42;1.85;;;21.30;99.90;;;;;;5008811;28;20579;-82
2023/07/15 04:32:03;;;;;;;2.30;1.88;;;21.30;99.90;;;;;;5008743;28;20206;-84
2023/07/15 04:34:30;;;;;;;4.75;2.33;;;21.30;99.90;;;;;;5007877;28;20638;-84
2023/07/15 04:36:57;;;;;;;3.60;2.35;;;21.30;99.90;;;;;;5006271;28;20214;-82
2023/07/15 04:39:27;;;;;;;2.15;1.95;;;21.30;99.90;;;;;;5009400;28;20586;-83
2023/07/15 04:41:54;;;;;;;6.35;2.20;;;21.30;99.90;;;;;;5008359;28;20720;-84
2023/07/15 04:44:20;;;;;;;4.00;2.33;;;21.30;99.90;;;;;;5011266;28;20753;-84
2023/07/15 04:46:48;;;;;;;3.33;2.28;;;21.30;99.90;;;;;;5007134;28;20230;-82
2023/07/15 04:49:15;;;;;;;4.15;2.20;;;21.30;99.90;;;;;;5009695;28;20214;-83
2023/07/15 04:51:42;;;;;;;4.30;2.38;;;21.40;99.90;;;;;;5008543;28;20219;-83
2023/07/15 04:54:09;;;;;;;2.85;1.95;;;21.30;99.90;;;;;;5010261;28;20584;-83
2023/07/15 04:56:36;;;;;;;3.25;2.17;;;21.40;99.90;;;;;;5007671;28;20222;-85
2023/07/15 04:59:03;;;;;;;3.05;2.30;;;21.40;99.90;;;;;;5012520;28;20215;-82
2023/07/15 05:01:30;;;;;;;2.85;2.47;;;21.50;99.90;;;;;;5007863;28;20213;-85
2023/07/15 05:03:59;;;;;;;2.97;2.00;;;21.40;99.90;;;;;;5008331;28;21069;-83
2023/07/15 05:06:27;;;;;;;3.60;2.70;;;21.40;99.90;;;;;;5007297;28;20730;-84
2023/07/15 05:08:54;;;;;;;3.38;2.58;;;21.50;99.90;;;;;;5006751;28;20247;-84
2023/07/15 05:11:21;;;;;;;5.65;2.53;;;21.50;99.90;;;;;;5009304;28;20604;-83
2023/07/15 05:13:48;;;;;;;3.00;2.25;;;21.40;99.90;;;;;;5008175;28;20222;-85
2023/07/15 05:16:15;;;;;;;3.00;2.00;;;21.50;99.90;;;;;;5005521;28;20342;-85
2023/07/15 05:18:43;;;;;;;6.07;2.58;;;21.50;99.90;;;;;;5003485;28;20206;-82
2023/07/15 05:21:09;;;;;;;2.47;2.28;;;21.60;99.90;;;;;;5010421;28;20675;-84
2023/07/15 05:23:36;;;;;;;3.50;2.22;;;21.60;99.90;;;;;;5008329;28;20635;-84
2023/07/15 05:26:04;;;;;;;4.70;2.40;;;21.60;99.90;;;;;;5009761;28;20238;-83
2023/07/15 05:28:35;;;;;;;2.83;2.42;;;21.70;99.90;;;;;;5010500;28;20203;-87
2023/07/15 05:31:11;;;;;;;3.30;2.17;;;21.80;99.90;;;;;;5009028;28;20211;-83
2023/07/15 05:33:44;;;;;;;3.28;2.10;;;21.90;99.90;;;;;;5008414;28;20206;-85
2023/07/15 05:36:11;;;;;;;3.45;2.28;;;22.00;99.90;;;;;;5008347;28;20225;-85
2023/07/15 05:38:43;;;;;;;3.13;2.47;;;22.30;99.90;;;;;;5009147;28;20222;-82
2023/07/15 05:41:14;;;;;;;4.25;2.30;;;;;;;;;;5008149;28;20209;-83
2023/07/15 05:43:41;;;;;;;4.00;2.50;;;23.60;99.90;;;;;;5017062;28;20719;-86
2023/07/15 05:46:10;;;;;;;5.20;2.10;;;24.60;99.90;;;;;;5013237;28;20234;-87
2023/07/15 05:48:38;;;;;;;3.70;2.20;;;;;;;;;;5012263;28;20206;-84
2023/07/15 05:51:05;;;;;;;3.38;2.30;;;26.40;99.90;;;;;;5010802;28;20269;-90
2023/07/15 05:53:45;;;;;;;3.92;2.35;;;27.10;99.90;;;;;;5013127;28;20261;-89
2023/07/15 05:56:14;;;;;;;3.65;2.20;;;27.80;99.90;;;;;;5008089;28;20226;-87
2023/07/15 05:58:55;;;;;;;3.28;2.40;;;28.50;99.90;;;;;;5008235;28;21276;-88
2023/07/15 06:01:30;;;;;;;4.32;1.95;;;29.10;99.90;;;;;;5011584;28;20226;-88
2023/07/15 06:04:11;;;;;;;3.92;2.08;;;29.80;99.90;;;;;;5011137;28;20256;-88
2023/07/15 06:06:55;;;;;;;3.03;2.30;;;30.50;99.90;;;;;;5015798;28;20233;-93
2023/07/15 06:09:23;;;;;;;3.45;2.10;;;31.00;99.90;;;;;;5010768;28;20768;-86
2023/07/15 06:11:55;;;;;;;3.38;2.00;;;31.50;99.90;;;;;;4994055;28;20237;-85
2023/07/15 06:14:22;;;;;;;2.95;1.95;;;32.10;99.90;;;;;;4988541;28;20269;-88
2023/07/15 06:16:50;;;;;;;4.38;2.17;;;32.40;99.90;;;;;;4991659;28;20868;-87
2023/07/15 06:19:18;;;;;;;3.83;2.40;;;32.80;99.90;;;;;;4972327;28;20199;-85
2023/07/15 06:21:46;;;;;;;3.90;2.30;;;33.00;99.50;;;;;;4975414;28;20301;-87
2023/07/15 06:24:16;;;;;;;2.85;2.13;;;33.40;98.90;;;;;;4986143;28;20746;-86
2023/07/15 06:26:47;;;;;;;4.65;2.13;;;33.70;97.60;;;;;;4967898;28;20293;-87
2023/07/15 06:29:27;;;;;;;2.65;2.05;;;33.90;97.30;;;;;;4972565;28;20593;-87
2023/07/15 06:31:54;;;;;;;4.18;2.05;;;34.10;96.80;;;;;;4989348;28;20210;-86
2023/07/15 06:34:23;;;;;;;4.18;1.80;;;34.20;96.30;;;;;;4989808;28;20223;-87
2023/07/15 06:36:50;;;;;;;2.33;1.60;;;34.20;96.10;;;;;;4966987;28;20714;-87
2023/07/15 06:39:27;;;;;;;2.65;1.70;;;34.10;96.10;;;;;;4992047;28;20293;-87
2023/07/15 06:41:57;;;;;;;3.85;1.63;;;33.50;96.40;;;;;;4970316;28;20308;-87
2023/07/15 06:44:25;;;;;;;2.67;1.85;;;33.20;96.70;;;;;;4974146;28;20285;-88
2023/07/15 06:46:55;;;;;;;2.60;1.45;;;32.80;97.20;;;;;;4994297;28;20633;-85
2023/07/15 06:49:22;;;;;;;2.60;1.42;;;32.80;97.70;;;;;;4993782;28;20211;-86
2023/07/15 06:51:49;;;;;;;2.60;1.17;;;32.80;97.80;;;;;;4989120;28;20276;-84
2023/07/15 06:54:16;;;;;;;2.55;1.42;;;32.60;97.90;;;;;;4989653;28;20207;-88
2023/07/15 06:56:49;;;;;;;2.20;1.30;;;32.60;98.10;;;;;;4983925;28;20714;-90
2023/07/15 06:59:20;;;;;;;1.67;1.27;;;32.50;98.20;;;;;;4993120;28;20780;-89
2023/07/15 07:01:56;;;;;;;2.92;1.35;;;32.70;98.50;;;;;;5002648;28;20216;-93
2023/07/15 07:04:50;;;;;;;4.70;1.17;;;33.10;98.10;;;;;;4992808;28;20205;-93
2023/07/15 07:07:22;;;;;;;1.38;1.17;;;33.10;97.80;;;;;;4997394;28;20241;-91
2023/07/15 07:09:52;;;;;;;1.17;1.08;;;33.30;97.90;;;;;;4997625;28;20294;-87
2023/07/15 07:12:19;;;;;;;1.33;1.05;;;33.30;97.50;;;;;;4999387;28;20229;-88
2023/07/15 07:14:46;;;;;;;1.00;0.90;;;32.80;97.30;;;;;;5014401;28;20237;-87
2023/07/15 07:17:13;;;;;;;1.75;1.23;;;32.80;97.70;;;;;;5009943;28;20202;-89
2023/07/15 07:19:42;;;;;;;3.10;1.13;;;32.70;97.50;;;;;;5007159;28;20206;-84
2023/07/15 07:22:09;;;;;;;1.73;1.50;;;32.30;97.70;;;;;;5004402;28;20234;-85
2023/07/15 07:24:35;;;;;;;2.08;1.23;;;32.50;97.90;;;;;;5005346;28;20613;-85
2023/07/15 07:27:03;;;;;;;2.38;1.20;;;32.80;97.90;;;;;;5005684;28;20238;-84
2023/07/15 07:29:30;;;;;;;2.00;1.20;;;33.10;97.60;;;;;;4998453;28;20362;-84
2023/07/15 07:31:57;;;;;;;1.85;1.10;;;33.50;97.50;;;;;;5004885;28;20701;-85
2023/07/15 07:34:25;;;;;;;1.85;1.20;;;33.70;97.00;;;;;;5004486;28;20586;-84
2023/07/15 07:36:52;;;;;;;3.28;1.38;;;33.90;96.70;;;;;;5006444;28;20202;-84
2023/07/15 07:39:19;;;;;;;1.33;1.10;;;34.10;96.40;;;;;;5007564;28;20206;-83
2023/07/15 07:41:48;;;;;;;1.73;1.10;;;33.90;96.30;;;;;;5011849;28;20245;-86
2023/07/15 07:44:15;;;;;;;2.55;1.30;;;33.80;96.30;;;;;;5002410;28;20587;-84
2023/07/15 07:46:42;;;;;;;2.17;1.40;;;33.80;96.20;;;;;;5012328;28;20288;-83
2023/07/15 07:49:09;;;;;;;3.63;1.40;;;33.90;95.80;;;;;;5011253;28;20210;-85
2023/07/15 07:51:36;;;;;;;2.45;1.23;;;34.20;96.00;;;;;;5019315;28;20202;-84
2023/07/15 07:54:03;;;;;;;2.78;1.50;;;34.20;95.40;;;;;;5004820;28;20221;-85
2023/07/15 07:56:30;;;;;;;5.20;1.58;;;34.00;95.00;;;;;;5024395;28;20225;-82
2023/07/15 07:58:59;;;;;;;2.88;1.60;;;33.40;94.90;;;;;;5014341;28;20202;-85
2023/07/15 08:01:27;;;;;;;2.67;1.33;;;33.00;95.30;;;;;;5009108;28;20273;-85
2023/07/15 08:03:54;;;;;;;2.42;1.70;;;33.10;95.70;;;;;;5011788;28;20220;-84
2023/07/15 08:06:22;;;;;;;1.95;1.20;;;33.10;95.90;;;;;;5007845;28;20284;-83
2023/07/15 08:08:49;;;;;;;1.80;1.20;;;33.40;96.30;;;;;;5012836;28;21002;-83
2023/07/15 08:11:16;;;;;;;2.17;1.52;;;33.50;96.00;;;;;;5011113;28;21034;-84
2023/07/15 08:13:43;;;;;;;2.03;1.25;;;33.70;95.80;;;;;;5009387;28;20213;-84
2023/07/15 08:16:32;;;;;;;1.50;1.40;;;33.60;95.30;;;;;;5009744;28;20636;-83
2023/07/15 08:19:01;;;;;;;1.70;1.60;;;32.80;95.50;;;;;;5003274;28;20261;-84
2023/07/15 08:21:30;;;;;;;3.30;1.45;;;;;;;;;;5008607;28;20199;-84
2023/07/15 08:23:57;;;;;;;2.25;1.58;;;31.50;99.90;;;;;;5007656;28;20214;-84
2023/07/15 08:26:26;;;;;;;1.35;1.25;;;30.90;98.00;;;;;;5008114;28;20305;-86
2023/07/15 08:28:55;;;;;;;3.05;1.45;;;30.60;99.00;;;;;;5010146;28;20974;-88
2023/07/15 08:31:22;;;;;;;2.30;1.50;;;;;;;;;;5008259;28;20345;-84
2023/07/15 08:33:49;;;;;;;2.75;1.35;;;30.00;99.90;;;;;;5009048;28;20699;-83
2023/07/15 08:36:16;;;;;;;1.60;1.20;;;29.80;99.90;;;;;;5007554;28;20221;-84
2023/07/15 08:38:43;;;;;;;2.20;1.50;;;29.70;99.90;;;;;;5007363;28;20218;-84
2023/07/15 08:41:10;;;;;;;1.75;1.40;;;29.50;99.90;;;;;;5008008;28;20268;-82
2023/07/15 08:43:43;;;;;;;3.47;1.45;;;29.60;99.90;;;;;;5008799;28;20203;-82
2023/07/15 08:46:25;;;;;;;2.88;1.20;;;30.00;99.90;;;;;;5007606;28;20206;-83
2023/07/15 08:48:53;;;;;;;2.17;1.30;;;30.40;99.90;;;;;;4995061;28;20217;-83
2023/07/15 08:51:33;;;;;;;2.17;1.30;;;30.50;99.90;;;;;;5007296;28;20213;-84
2023/07/15 08:54:02;;;;;;;1.83;1.27;;;30.70;99.90;;;;;;5008067;28;20234;-85
2023/07/15 08:56:32;;;;;;;1.85;1.02;;;30.90;99.90;;;;;;5007077;28;20233;-83
2023/07/15 08:58:59;;;;;;;1.48;0.90;;;30.50;99.80;;;;;;5003616;28;20210;-84
2023/07/15 09:01:26;;;;;;;2.65;1.20;;;30.10;99.90;;;;;;5008152;28;20252;-84
2023/07/15 09:03:53;;;;;;;1.55;1.10;;;29.80;99.90;;;;;;5006579;28;20202;-86
2023/07/15 09:06:20;;;;;;;2.03;1.13;;;29.20;99.90;;;;;;5008299;28;20219;-83
2023/07/15 09:08:51;;;;;;;2.08;1.30;;;29.30;99.90;;;;;;5004886;28;20690;-86
2023/07/15 09:11:18;;;;;;;1.20;1.10;;;29.20;99.90;;;;;;5007725;28;20234;-83
2023/07/15 09:13:46;;;;;;;1.50;1.40;;;29.20;99.90;;;;;;5007669;28;20214;-84
2023/07/15 09:16:13;;;;;;;2.25;1.20;;;29.50;99.90;;;;;;5006282;28;20215;-83
2023/07/15 09:18:43;;;;;;;1.60;1.00;;;30.00;99.90;;;;;;5010151;28;20206;-83
2023/07/15 09:21:15;;;;;;;1.63;1.10;;;30.20;99.90;;;;;;5010369;28;20273;-84
2023/07/15 09:23:44;;;;;;;1.17;1.08;;;30.20;99.90;;;;;;5008179;28;20218;-85
2023/07/15 09:26:12;;;;;;;1.98;1.20;;;30.30;99.90;;;;;;5001011;28;20218;-84
2023/07/15 09:28:43;;;;;;;2.63;1.02;;;30.30;99.90;;;;;;5008332;28;20739;-83
2023/07/15 09:31:25;;;;;;;1.45;0.98;;;29.90;99.90;;;;;;5008296;28;20224;-86
2023/07/15 09:34:02;;;;;;;2.25;0.80;;;29.60;99.90;;;;;;5003532;28;20268;-83
2023/07/15 09:36:31;;;;;;;0.98;0.88;;;29.30;99.90;;;;;;5007607;28;20210;-85
2023/07/15 09:39:13;;;;;;;2.85;1.00;;;29.10;99.90;;;;;;5007679;28;20210;-83
2023/07/15 09:41:41;;;;;;;1.35;0.80;;;28.60;99.90;;;;;;5007688;28;20667;-84
2023/07/15 09:44:11;;;;;;;0.98;0.90;;;28.40;99.90;;;;;;5006604;28;20207;-85
2023/07/15 09:46:40;;;;;;;1.75;0.90;;;28.00;99.90;;;;;;5007506;28;20229;-84
2023/07/15 09:49:07;;;;;;;2.72;1.10;;;27.90;99.90;;;;;;5008652;28;20233;-85
2023/07/15 09:51:34;;;;;;;2.55;1.15;;;27.80;99.90;;;;;;5013503;28;20202;-85
2023/07/15 09:54:02;;;;;;;4.22;1.08;;;27.70;99.90;;;;;;5009454;28;20245;-82
2023/07/15 09:56:38;;;;;;;2.60;0.90;;;27.70;99.90;;;;;;5009936;28;20257;-83
2023/07/15 09:59:17;;;;;;;2.30;1.13;;;27.80;99.90;;;;;;5007734;28;20211;-85
2023/07/15 10:01:47;;;;;;;2.38;1.08;;;27.80;99.90;;;;;;5009568;28;20214;-84
2023/07/15 10:04:29;;;;;;;1.77;1.10;;;27.90;99.90;;;;;;5008844;28;20210;-85
2023/07/15 10:06:57;;;;;;;1.65;1.27;;;27.90;99.90;;;;;;5005232;28;20214;-84
2023/07/15 10:09:26;;;;;;;1.27;1.10;;;27.80;99.90;;;;;;5006892;28;20214;-84
2023/07/15 10:11:59;;;;;;;1.30;1.13;;;27.90;99.90;;;;;;5006985;28;20325;-82
2023/07/15 10:14:30;;;;;;;2.15;1.25;;;28.20;99.90;;;;;;5007541;28;20203;-85
2023/07/15 10:17:14;;;;;;;2.28;1.20;;;28.40;99.90;;;;;;5006754;28;20571;-86
2023/07/15 10:20:12;;;;;;;1.60;1.20;;;28.60;99.90;;;;;;5007333;28;20214;-85
2023/07/15 10:22:47;;;;;;;4.38;1.95;;;28.60;99.90;;;;;;5000229;28;20600;-85
2023/07/15 10:25:18;;;;;;;2.80;1.58;;;28.50;99.90;;;;;;5005964;28;20592;-84
2023/07/15 10:27:45;;;;;;;1.90;1.17;;;28.40;99.90;;;;;;4999199;28;20234;-85
2023/07/15 10:30:19;;;;;;;2.10;1.40;;;28.30;99.90;;;;;;5012171;28;20782;-86
2023/07/15 10:36:48;;;;;;;3.13;1.33;;;28.10;99.90;;;;;;4933434;28;20305;-84
2023/07/15 10:39:19;;;;;;;1.60;1.30;;;28.00;99.90;;;;;;5002702;28;20214;-85
2023/07/15 10:41:48;;;;;;;3.58;1.58;;;27.90;99.90;;;;;;5007242;28;20222;-84
2023/07/15 10:44:15;;;;;;;2.92;1.58;;;27.90;99.90;;;;;;5007703;28;20222;-87
2023/07/15 10:46:45;;;;;;;1.70;1.30;;;27.80;99.90;;;;;;5015591;28;20655;-83
2023/07/15 10:49:12;;;;;;;1.85;1.45;;;27.60;99.90;;;;;;5013685;28;20205;-86
2023/07/15 10:51:39;;;;;;;1.77;1.48;;;27.50;99.90;;;;;;5003552;28;20301;-85
2023/07/15 10:54:08;;;;;;;2.05;1.42;;;27.40;99.90;;;;;;5005848;28;20296;-86
2023/07/15 10:56:38;;;;;;;2.05;1.50;;;27.40;99.90;;;;;;5006904;28;20316;-85
2023/07/15 10:59:05;;;;;;;2.90;1.45;;;27.50;99.90;;;;;;5007190;28;20214;-85
2023/07/15 11:01:32;;;;;;;1.88;1.45;;;27.50;99.90;;;;;;5007246;28;20241;-84
2023/07/15 11:04:05;;;;;;;2.47;1.50;;;27.50;99.90;;;;;;5034807;28;20289;-89
2023/07/15 11:06:38;;;;;;;5.25;1.70;;;27.60;99.90;;;;;;5020454;28;20210;-90
2023/07/15 11:09:17;;;;;;;2.53;1.70;;;27.60;99.90;;;;;;5022266;28;20669;-96
2023/07/15 11:11:46;;;;;;;2.28;1.60;;;27.50;99.90;;;;;;5027007;28;20690;-95
2023/07/15 11:14:26;;;;;;;1.98;1.40;;;27.50;99.90;;;;;;5021328;28;20207;-94
2023/07/15 11:17:01;;;;;;;4.25;1.60;;;27.30;99.90;;;;;;5008431;28;20216;-95
2023/07/15 11:19:31;;;;;;;2.45;1.70;;;27.20;99.90;;;;;;5023412;28;20663;-94
2023/07/15 11:22:04;;;;;;;1.83;1.63;;;26.90;99.90;;;;;;5027699;28;20198;-91
2023/07/15 11:24:50;;;;;;;2.50;1.48;;;26.80;99.90;;;;;;5031937;28;20202;-93
2023/07/15 11:27:22;;;;;;;2.33;1.42;;;26.60;99.90;;;;;;5021835;28;20259;-92
2023/07/15 11:30:22;;;;;;;;;;;;;;;;;;;;;
2023/07/15 11:32:57;;;;;;;4.47;1.77;;;26.70;99.90;;;;;;5012528;28;20218;-91
2023/07/15 11:35:31;;;;;;;2.50;1.70;;;27.20;99.90;;;;;;5002325;28;20225;-93
2023/07/15 11:38:09;;;;;;;4.45;1.73;;;27.50;99.90;;;;;;5014253;28;20210;-93
2023/07/15 11:40:52;;;;;;;3.83;1.67;;;27.80;99.90;;;;;;5012694;28;20301;-90
2023/07/15 11:43:24;;;;;;;3.58;1.58;;;28.00;99.90;;;;;;5023108;28;20268;-92
2023/07/15 11:45:59;;;;;;;3.17;1.85;;;28.30;99.90;;;;;;5022622;28;20652;-96
2023/07/15 11:48:50;;;;;;;3.00;1.52;;;28.60;99.90;;;;;;5021466;28;21349;-90
2023/07/15 11:51:43;;;;;;;2.22;1.50;;;28.50;99.90;;;;;;5012426;28;20264;-96
2023/07/15 11:54:15;;;;;;;1.77;1.48;;;28.40;99.90;;;;;;5035216;28;20207;-93
2023/07/15 11:56:44;;;;;;;5.20;1.70;;;28.40;99.90;;;;;;5011055;28;20298;-95
2023/07/15 11:59:29;;;;;;;2.28;1.52;;;28.30;99.90;;;;;;5018692;28;20218;-91
2023/07/15 12:01:58;;;;;;;1.58;1.33;;;28.30;99.90;;;;;;5031205;28;20206;-94
2023/07/15 12:04:31;;;;;;;3.00;1.80;;;28.30;99.90;;;;;;5017857;28;20226;-93
2023/07/15 12:07:04;;;;;;;2.33;1.50;;;28.40;99.90;;;;;;5019732;28;20342;-90
2023/07/15 12:09:47;;;;;;;2.85;1.30;;;28.20;99.90;;;;;;5018938;28;20280;-91
2023/07/15 12:12:14;;;;;;;3.38;1.40;;;28.20;99.90;;;;;;5019012;28;20249;-92
2023/07/15 12:14:49;;;;;;;2.47;1.52;;;28.10;99.90;;;;;;5029590;28;20236;-92
2023/07/15 12:17:16;;;;;;;3.30;1.35;;;28.10;99.90;;;;;;5020494;28;20245;-91
2023/07/15 12:19:44;;;;;;;2.45;1.50;;;28.30;99.90;;;;;;5016845;28;20217;-91
2023/07/15 12:22:18;;;;;;;2.03;1.02;;;28.30;99.90;;;;;;5024017;28;20498;-92
2023/07/15 12:24:52;;;;;;;3.40;1.40;;;28.50;99.90;;;;;;5026342;28;20755;-90
2023/07/15 12:27:21;;;;;;;4.10;1.60;;;28.60;99.90;;;;;;5021360;28;20230;-89
2023/07/15 12:29:50;;;;;;;4.72;1.40;;;28.60;99.90;;;;;;5011694;28;20210;-87
2023/07/15 12:32:23;;;;;;;2.90;1.40;;;28.50;99.90;;;;;;5017498;28;20218;-92
2023/07/15 12:34:53;;;;;;;1.80;1.63;;;28.40;99.90;;;;;;5024609;28;20461;-93
2023/07/15 12:37:21;;;;;;;3.40;1.42;;;28.30;99.90;;;;;;5032634;28;20210;-91
2023/07/15 12:39:49;;;;;;;2.50;1.50;;;28.30;99.90;;;;;;5022722;28;20275;-86
2023/07/15 12:42:25;;;;;;;3.28;1.50;;;28.30;99.90;;;;;;5028554;28;20217;-91
2023/07/15 12:44:54;;;;;;;2.28;1.52;;;28.30;99.90;;;;;;5033178;28;20346;-89
2023/07/15 12:47:29;;;;;;;2.40;2.20;;;28.40;99.90;;;;;;5027942;28;20503;-90
2023/07/15 12:50:00;;;;;;;2.00;1.30;;;28.60;99.90;;;;;;5026776;28;20198;-91
2023/07/15 12:52:47;;;;;;;2.42;1.30;;;28.70;99.90;;;;;;5019061;28;20211;-91
2023/07/15 12:55:22;;;;;;;2.55;1.50;;;28.90;99.90;;;;;;5027875;28;20242;-92
2023/07/15 12:58:08;;;;;;;2.90;1.20;;;29.00;99.90;;;;;;5036211;28;20233;-90
2023/07/15 13:00:57;;;;;;;3.67;1.40;;;29.30;99.90;;;;;;5034443;28;20253;-93
2023/07/15 13:03:56;;;;;;;1.95;1.33;;;29.40;99.90;;;;;;5021252;28;20210;-92
2023/07/15 13:06:53;;;;;;;4.45;2.60;;;29.50;99.90;;;;;;5033524;28;20218;-94
2023/07/15 13:09:21;;;;;;;2.67;1.42;;;29.50;99.90;;;;;;5033273;28;20226;-93
2023/07/15 13:12:05;;;;;;;1.50;1.30;;;29.40;99.60;;;;;;5029493;28;20308;-94